createdAt,value
2022-09-02T00:01:57.840Z,18.59
2022-09-02T00:04:29.059Z,18.56
2022-09-02T00:06:58.680Z,18.52
2022-09-02T00:09:29.249Z,18.46
2022-09-02T00:11:59.714Z,18.43
2022-09-02T00:14:43.297Z,18.38
2022-09-02T00:17:12.687Z,18.37
2022-09-02T00:19:42.106Z,18.31
2022-09-02T00:22:14.630Z,18.27
2022-09-02T00:24:44.099Z,18.24
2022-09-02T00:27:13.501Z,18.19
2022-09-02T00:29:45.595Z,18.12
2022-09-02T00:32:14.928Z,18.13
2022-09-02T00:34:44.356Z,18.12
2022-09-02T00:37:14.213Z,18.06
2022-09-02T00:39:43.821Z,18.06
2022-09-02T00:42:13.344Z,18.00
2022-09-02T00:44:42.749Z,17.96
2022-09-02T00:47:12.293Z,17.95
2022-09-02T00:49:45.421Z,17.90
2022-09-02T00:52:25.330Z,17.86
2022-09-02T00:54:59.516Z,17.82
2022-09-02T00:57:34.682Z,17.79
2022-09-02T01:00:13.133Z,17.76
2022-09-02T01:02:44.727Z,17.71
2022-09-02T01:05:16.766Z,17.69
2022-09-02T01:07:47.561Z,17.65
2022-09-02T01:10:20.742Z,17.63
2022-09-02T01:12:50.222Z,17.60
2022-09-02T01:15:19.579Z,17.54
2022-09-02T01:17:52.216Z,17.49
2022-09-02T01:20:25.815Z,17.46
2022-09-02T01:22:57.372Z,17.43
2022-09-02T01:25:33.824Z,17.41
2022-09-02T01:28:06.068Z,17.38
2022-09-02T01:30:36.964Z,17.35
2022-09-02T01:33:07.072Z,17.34
2022-09-02T01:35:36.630Z,17.29
2022-09-02T01:38:06.351Z,17.24
2022-09-02T01:40:36.505Z,17.18
2022-09-02T01:43:14.619Z,17.13
2022-09-02T01:45:46.375Z,17.09
2022-09-02T01:48:21.377Z,17.07
2022-09-02T01:51:01.829Z,17.00
2022-09-02T01:53:32.468Z,16.96
2022-09-02T01:56:02.464Z,16.93
2022-09-02T01:58:36.112Z,16.90
2022-09-02T02:01:05.944Z,16.84
2022-09-02T02:03:39.259Z,16.81
2022-09-02T02:06:15.021Z,16.76
2022-09-02T02:08:47.784Z,16.75
2022-09-02T02:11:26.750Z,16.69
2022-09-02T02:14:00.522Z,16.65
2022-09-02T02:16:30.151Z,16.57
2022-09-02T02:18:59.552Z,16.54
2022-09-02T02:21:29.053Z,16.49
2022-09-02T02:24:00.509Z,16.44
2022-09-02T02:26:33.295Z,16.40
2022-09-02T02:29:02.874Z,16.39
2022-09-02T02:31:33.584Z,16.37
2022-09-02T02:34:03.263Z,16.33
2022-09-02T02:36:33.033Z,16.30
2022-09-02T02:39:02.484Z,16.29
2022-09-02T02:41:35.917Z,16.25
2022-09-02T02:44:06.283Z,16.24
2022-09-02T02:46:39.316Z,16.20
2022-09-02T02:49:09.839Z,16.18
2022-09-02T02:51:39.792Z,16.16
2022-09-02T02:54:11.609Z,16.15
2022-09-02T02:56:41.100Z,16.15
2022-09-02T02:59:10.723Z,16.14
2022-09-02T03:01:40.625Z,16.17
2022-09-02T03:04:12.963Z,16.17
2022-09-02T03:06:43.222Z,16.16
2022-09-02T03:09:13.738Z,16.19
2022-09-02T03:11:43.512Z,16.20
2022-09-02T03:14:12.941Z,16.21
2022-09-02T03:16:42.627Z,16.24
2022-09-02T03:19:14.163Z,16.28
2022-09-02T03:21:45.053Z,16.29
2022-09-02T03:24:15.811Z,16.32
2022-09-02T03:26:46.429Z,16.36
2022-09-02T03:29:15.950Z,16.40
2022-09-02T03:31:46.640Z,16.45
2022-09-02T03:34:16.389Z,16.49
2022-09-02T03:36:46.849Z,16.54
2022-09-02T03:39:17.232Z,16.59
2022-09-02T03:41:50.406Z,16.60
2022-09-02T03:44:20.190Z,16.62
2022-09-02T03:46:50.390Z,16.64
2022-09-02T03:49:19.880Z,16.67
2022-09-02T03:51:49.517Z,16.70
2022-09-02T03:54:19.055Z,16.70
2022-09-02T03:56:48.803Z,16.74
2022-09-02T03:59:18.664Z,16.79
2022-09-02T04:01:48.800Z,16.83
2022-09-02T04:04:22.636Z,16.84
2022-09-02T04:06:53.878Z,16.87
2022-09-02T04:09:23.590Z,16.89
2022-09-02T04:11:53.573Z,16.86
2022-09-02T04:14:23.033Z,16.89
2022-09-02T04:16:52.444Z,16.90
2022-09-02T04:19:22.380Z,16.89
2022-09-02T04:21:52.312Z,16.87
2022-09-02T04:24:22.086Z,16.84
2022-09-02T04:26:52.602Z,16.83
2022-09-02T04:29:22.288Z,16.80
2022-09-02T04:31:54.683Z,16.80
2022-09-02T04:34:24.899Z,16.74
2022-09-02T04:36:55.692Z,16.70
2022-09-02T04:39:26.189Z,16.66
2022-09-02T04:41:56.817Z,16.61
2022-09-02T04:44:29.074Z,16.58
2022-09-02T04:46:59.363Z,16.56
2022-09-02T04:49:32.077Z,16.53
2022-09-02T04:52:03.089Z,16.50
2022-09-02T04:54:33.376Z,16.48
2022-09-02T04:57:04.610Z,16.44
2022-09-02T04:59:36.515Z,16.39
2022-09-02T05:02:10.853Z,16.37
2022-09-02T05:04:40.949Z,16.36
2022-09-02T05:07:18.927Z,16.38
2022-09-02T05:09:50.538Z,16.37
2022-09-02T05:12:20.890Z,16.38
2022-09-02T05:14:55.699Z,16.38
2022-09-02T05:17:26.927Z,16.42
2022-09-02T05:19:57.374Z,16.43
2022-09-02T05:22:29.405Z,16.49
2022-09-02T05:25:00.815Z,16.55
2022-09-02T05:27:33.245Z,16.62
2022-09-02T05:30:03.500Z,16.67
2022-09-02T05:32:37.704Z,16.68
2022-09-02T05:35:08.691Z,16.67
2022-09-02T05:37:39.233Z,16.72
2022-09-02T05:40:14.721Z,16.77
2022-09-02T05:42:45.044Z,16.88
2022-09-02T05:45:18.297Z,16.90
2022-09-02T05:47:49.672Z,16.93
2022-09-02T05:50:20.681Z,16.97
2022-09-02T05:52:53.516Z,17.00
2022-09-02T05:55:25.298Z,17.12
2022-09-02T05:57:54.746Z,17.30
2022-09-02T06:00:25.320Z,17.41
2022-09-02T06:03:01.696Z,17.47
2022-09-02T06:05:37.396Z,17.47
2022-09-02T06:08:12.158Z,17.57
2022-09-02T06:10:45.889Z,17.57
2022-09-02T06:13:21.547Z,17.64
2022-09-02T06:15:53.487Z,17.77
2022-09-02T06:18:26.989Z,17.81
2022-09-02T06:20:58.736Z,17.86
2022-09-02T06:23:33.431Z,17.98
2022-09-02T06:26:05.015Z,18.05
2022-09-02T06:28:35.554Z,18.14
2022-09-02T06:31:16.484Z,18.37
2022-09-02T06:33:48.236Z,18.43
2022-09-02T06:36:21.743Z,18.60
2022-09-02T06:38:57.065Z,18.70
2022-09-02T06:41:33.608Z,18.84
2022-09-02T06:44:08.348Z,18.95
2022-09-02T06:46:44.405Z,19.10
2022-09-02T06:49:16.355Z,19.26
2022-09-02T06:51:50.063Z,19.38
2022-09-02T06:54:23.504Z,19.43
2022-09-02T06:56:59.327Z,19.55
2022-09-02T06:59:29.475Z,19.66
2022-09-02T07:02:01.019Z,19.81
2022-09-02T07:04:43.713Z,19.92
2022-09-02T07:07:17.289Z,20.05
2022-09-02T07:09:55.471Z,20.10
2022-09-02T07:12:27.150Z,20.14
2022-09-02T07:15:07.764Z,20.24
2022-09-02T07:17:42.786Z,20.35
2022-09-02T07:20:17.785Z,20.48
2022-09-02T07:22:56.379Z,20.73
2022-09-02T07:25:27.956Z,21.02
2022-09-02T07:27:57.466Z,21.40
2022-09-02T07:30:27.755Z,21.78
2022-09-02T07:33:12.191Z,22.23
2022-09-02T07:35:41.813Z,22.63
2022-09-02T07:38:14.027Z,23.10
2022-09-02T07:40:47.099Z,23.55
2022-09-02T07:43:18.562Z,23.80
2022-09-02T07:45:48.317Z,24.07
2022-09-02T07:48:18.331Z,24.32
2022-09-02T07:50:49.758Z,24.48
2022-09-02T07:53:22.441Z,24.59
2022-09-02T07:55:52.772Z,24.49
2022-09-02T07:58:23.782Z,24.37
2022-09-02T08:00:56.129Z,24.17
2022-09-02T08:03:29.272Z,23.85
2022-09-02T08:06:00.827Z,23.66
2022-09-02T08:08:30.802Z,23.62
2022-09-02T08:13:50.412Z,23.87
2022-09-02T08:16:20.320Z,23.95
2022-09-02T08:18:50.147Z,24.04
2022-09-02T08:21:19.588Z,24.06
2022-09-02T08:23:51.482Z,24.24
2022-09-02T08:26:21.623Z,24.30
2022-09-02T08:28:52.763Z,24.07
2022-09-02T08:31:22.138Z,24.01
2022-09-02T08:33:51.746Z,23.96
2022-09-02T08:36:21.238Z,24.10
2022-09-02T08:38:50.579Z,24.15
2022-09-02T08:41:26.067Z,24.10
2022-09-02T08:43:57.903Z,24.03
2022-09-02T08:46:31.267Z,23.97
2022-09-02T08:49:28.472Z,24.01
2022-09-02T08:52:03.599Z,24.03
2022-09-02T08:54:55.626Z,24.09
2022-09-02T08:57:27.674Z,24.19
2022-09-02T09:00:01.367Z,24.23
2022-09-02T09:02:57.011Z,24.30
2022-09-02T09:05:42.760Z,24.29
2022-09-02T09:08:37.029Z,24.39
2022-09-02T09:11:31.526Z,24.65
2022-09-02T09:14:16.236Z,24.80
2022-09-02T09:16:52.627Z,25.01
2022-09-02T09:19:46.649Z,25.13
2022-09-02T09:22:20.628Z,25.31
2022-09-02T09:24:52.836Z,25.55
2022-09-02T09:27:23.600Z,25.74
2022-09-02T09:29:54.518Z,26.01
2022-09-02T09:33:02.806Z,26.27
2022-09-02T09:35:53.812Z,26.40
2022-09-02T09:38:36.136Z,26.56
2022-09-02T09:41:20.447Z,26.73
2022-09-02T09:43:50.222Z,26.82
2022-09-02T09:46:24.504Z,27.08
2022-09-02T09:48:54.698Z,27.25
2022-09-02T09:51:24.205Z,27.34
2022-09-02T09:53:54.248Z,27.41
2022-09-02T09:56:30.068Z,27.56
2022-09-02T09:58:59.495Z,27.77
2022-09-02T10:01:35.830Z,27.74
2022-09-02T10:04:39.208Z,27.95
2022-09-02T10:07:03.470Z,28.15
2022-09-02T10:09:39.505Z,28.26
2022-09-02T10:12:11.946Z,28.32
2022-09-02T10:14:49.667Z,28.40
2022-09-02T10:17:31.825Z,28.39
2022-09-02T10:20:26.263Z,28.52
2022-09-02T10:23:06.075Z,28.67
2022-09-02T10:25:39.912Z,28.82
2022-09-02T10:28:09.725Z,28.80
2022-09-02T10:30:46.536Z,28.71
2022-09-02T10:33:45.634Z,28.88
2022-09-02T10:36:25.118Z,28.94
2022-09-02T10:38:54.762Z,28.92
2022-09-02T10:41:31.794Z,28.84
2022-09-02T10:44:26.955Z,28.76
2022-09-02T10:47:04.833Z,28.75
2022-09-02T10:49:56.522Z,28.97
2022-09-02T10:52:47.500Z,29.12
2022-09-02T10:55:17.100Z,29.15
2022-09-02T10:58:03.781Z,29.30
2022-09-02T11:00:35.754Z,29.47
2022-09-02T11:03:27.202Z,29.50
2022-09-02T11:06:18.915Z,29.49
2022-09-02T11:09:13.022Z,29.57
2022-09-02T11:11:55.937Z,29.77
2022-09-02T11:14:45.371Z,29.74
2022-09-02T11:17:27.559Z,29.80
2022-09-02T11:20:30.383Z,29.79
2022-09-02T11:23:18.124Z,29.83
2022-09-02T11:25:55.204Z,29.98
2022-09-02T11:29:10.674Z,29.79
2022-09-02T11:31:59.553Z,29.39
2022-09-02T11:34:42.927Z,29.17
2022-09-02T11:37:19.823Z,29.04
2022-09-02T11:40:11.259Z,29.01
2022-09-02T11:43:23.070Z,29.00
2022-09-02T11:46:05.169Z,29.09
2022-09-02T11:49:12.620Z,29.20
2022-09-02T11:52:03.871Z,29.22
2022-09-02T11:54:45.865Z,29.54
2022-09-02T11:57:23.522Z,29.53
2022-09-02T11:59:53.224Z,29.82
2022-09-02T12:02:40.481Z,29.81
2022-09-02T12:05:32.331Z,29.92
2022-09-02T12:08:15.082Z,29.66
2022-09-02T12:10:45.299Z,29.37
2022-09-02T12:13:35.122Z,29.13
2022-09-02T12:16:16.972Z,28.93
2022-09-02T12:18:48.584Z,28.85
2022-09-02T12:21:23.467Z,28.99
2022-09-02T12:23:56.340Z,29.15
2022-09-02T12:26:28.918Z,29.12
2022-09-02T12:29:24.737Z,29.21
2022-09-02T12:31:55.824Z,29.22
2022-09-02T12:34:28.891Z,29.19
2022-09-02T12:36:59.825Z,29.36
2022-09-02T12:39:30.693Z,29.65
2022-09-02T12:42:10.624Z,29.79
2022-09-02T12:45:04.721Z,30.11
2022-09-02T12:47:47.044Z,30.28
2022-09-02T12:50:23.396Z,30.47
2022-09-02T12:52:54.542Z,30.41
2022-09-02T12:55:29.962Z,30.55
2022-09-02T12:58:16.241Z,30.71
2022-09-02T13:00:46.520Z,30.93
2022-09-02T13:03:43.975Z,31.10
2022-09-02T13:06:16.242Z,31.01
2022-09-02T13:09:10.770Z,30.80
2022-09-02T13:12:07.636Z,30.44
2022-09-02T13:14:56.689Z,30.61
2022-09-02T13:17:46.488Z,30.89
2022-09-02T13:20:34.271Z,30.96
2022-09-02T13:23:15.751Z,31.10
2022-09-02T13:26:22.828Z,31.46
2022-09-02T13:29:09.865Z,31.80
2022-09-02T13:31:39.359Z,31.94
2022-09-02T13:34:14.783Z,32.07
2022-09-02T13:36:47.519Z,31.91
2022-09-02T13:39:24.018Z,31.72
2022-09-02T13:41:53.976Z,31.71
2022-09-02T13:44:29.599Z,31.73
2022-09-02T13:47:06.475Z,31.70
2022-09-02T13:49:42.872Z,31.87
2022-09-02T13:53:00.985Z,31.95
2022-09-02T13:55:16.684Z,31.79
2022-09-02T13:58:00.816Z,31.80
2022-09-02T14:00:40.005Z,31.81
2022-09-02T14:03:22.436Z,31.72
2022-09-02T14:05:55.073Z,31.64
2022-09-02T14:08:26.966Z,31.61
2022-09-02T14:10:58.525Z,31.39
2022-09-02T14:13:28.361Z,31.27
2022-09-02T14:16:27.186Z,31.26
2022-09-02T14:19:16.910Z,31.22
2022-09-02T14:21:51.281Z,31.05
2022-09-02T14:24:29.149Z,30.94
2022-09-02T14:27:00.650Z,30.71
2022-09-02T14:29:32.445Z,30.68
2022-09-02T14:32:18.483Z,30.66
2022-09-02T14:34:49.817Z,30.60
2022-09-02T14:37:29.590Z,30.46
2022-09-02T14:40:11.932Z,30.19
2022-09-02T14:42:57.597Z,30.02
2022-09-02T14:45:37.814Z,29.86
2022-09-02T14:48:23.751Z,29.60
2022-09-02T14:51:02.927Z,29.35
2022-09-02T14:53:33.078Z,29.34
2022-09-02T14:56:02.709Z,29.39
2022-09-02T14:58:32.267Z,29.41
2022-09-02T15:01:04.688Z,29.35
2022-09-02T15:03:39.514Z,29.32
2022-09-02T15:06:14.528Z,29.22
2022-09-02T15:08:44.839Z,29.21
2022-09-02T15:11:18.063Z,29.25
2022-09-02T15:13:47.495Z,29.24
2022-09-02T15:16:16.877Z,29.20
2022-09-02T15:18:46.285Z,29.22
2022-09-02T15:21:15.893Z,29.10
2022-09-02T15:23:51.030Z,29.09
2022-09-02T15:26:20.936Z,29.06
2022-09-02T15:28:50.452Z,29.07
2022-09-02T15:31:19.953Z,29.02
2022-09-02T15:33:54.533Z,29.00
2022-09-02T15:36:25.505Z,28.93
2022-09-02T15:38:54.892Z,28.84
2022-09-02T15:41:29.018Z,28.74
2022-09-02T15:43:59.709Z,28.75
2022-09-02T15:46:31.466Z,28.84
2022-09-02T15:49:06.529Z,28.90
2022-09-02T15:51:38.584Z,28.86
2022-09-02T15:54:16.529Z,28.80
2022-09-02T15:56:48.754Z,28.78
2022-09-02T15:59:21.453Z,28.74
2022-09-02T16:01:56.979Z,28.60
2022-09-02T16:04:27.332Z,28.63
2022-09-02T16:06:57.337Z,28.60
2022-09-02T16:09:26.856Z,28.53
2022-09-02T16:11:57.340Z,28.37
2022-09-02T16:14:28.569Z,28.35
2022-09-02T16:16:58.508Z,28.37
2022-09-02T16:19:30.597Z,28.41
2022-09-02T16:22:00.547Z,28.37
2022-09-02T16:24:30.029Z,28.36
2022-09-02T16:26:59.386Z,28.34
2022-09-02T16:29:30.741Z,28.36
2022-09-02T16:32:23.702Z,28.38
2022-09-02T16:34:49.418Z,28.35
2022-09-02T16:37:19.004Z,28.34
2022-09-02T16:39:48.789Z,28.30
2022-09-02T16:42:18.235Z,28.26
2022-09-02T16:44:51.454Z,28.19
2022-09-02T16:47:21.375Z,28.13
2022-09-02T16:49:51.487Z,28.07
2022-09-02T16:52:20.996Z,28.04
2022-09-02T16:54:50.403Z,28.05
2022-09-02T16:57:19.802Z,27.95
2022-09-02T16:59:49.494Z,27.93
2022-09-02T17:02:18.902Z,27.86
2022-09-02T17:04:48.308Z,27.81
2022-09-02T17:07:17.692Z,27.84
2022-09-02T17:09:47.042Z,27.81
2022-09-02T17:12:16.451Z,27.75
2022-09-02T17:14:46.116Z,27.71
2022-09-02T17:17:17.287Z,27.60
2022-09-02T17:19:46.684Z,27.56
2022-09-02T17:22:16.077Z,27.52
2022-09-02T17:24:45.696Z,27.49
2022-09-02T17:27:15.143Z,27.38
2022-09-02T17:29:49.516Z,27.31
2022-09-02T17:32:23.416Z,27.16
2022-09-02T17:34:53.374Z,27.05
2022-09-02T17:37:23.687Z,26.90
2022-09-02T17:39:53.343Z,26.80
2022-09-02T17:42:21.500Z,26.68
2022-09-02T17:44:51.185Z,26.58
2022-09-02T17:47:23.577Z,26.53
2022-09-02T17:49:53.120Z,26.43
2022-09-02T17:52:25.919Z,26.35
2022-09-02T17:54:56.409Z,26.22
2022-09-02T17:57:51.406Z,26.08
2022-09-02T18:00:26.645Z,25.92
2022-09-02T18:03:34.721Z,25.82
2022-09-02T18:06:28.320Z,25.67
2022-09-02T18:09:01.332Z,25.56
2022-09-02T18:11:32.475Z,25.47
2022-09-02T18:14:40.994Z,25.37
2022-09-02T18:17:19.152Z,25.26
2022-09-02T18:20:00.481Z,25.17
2022-09-02T18:23:09.927Z,25.06
2022-09-02T18:25:46.087Z,24.95
2022-09-02T18:28:27.038Z,24.85
2022-09-02T18:31:34.356Z,24.75
2022-09-02T18:34:25.013Z,24.62
2022-09-02T18:37:14.606Z,24.49
2022-09-02T18:40:11.967Z,24.38
2022-09-02T18:43:01.744Z,24.25
2022-09-02T18:45:36.149Z,24.16
2022-09-02T18:48:15.195Z,24.06
2022-09-02T18:51:07.035Z,23.98
2022-09-02T18:53:43.036Z,23.89
2022-09-02T18:58:49.375Z,23.72
2022-09-02T19:01:27.687Z,23.68
2022-09-02T19:03:57.748Z,23.59
2022-09-02T19:06:34.225Z,23.52
2022-09-02T19:09:11.748Z,23.43
2022-09-02T19:11:42.609Z,23.38
2022-09-02T19:14:20.342Z,23.34
2022-09-02T19:16:50.036Z,23.31
2022-09-02T19:19:19.918Z,23.27
2022-09-02T19:21:58.615Z,23.21
2022-09-02T19:24:32.957Z,23.14
2022-09-02T19:27:07.595Z,23.10
2022-09-02T19:29:43.903Z,23.04
2022-09-02T19:32:15.310Z,22.98
2022-09-02T19:34:47.747Z,22.94
2022-09-02T19:37:17.228Z,22.91
2022-09-02T19:39:48.125Z,22.86
2022-09-02T19:42:24.076Z,22.82
2022-09-02T19:44:54.023Z,22.77
2022-09-02T19:48:05.438Z,22.75
2022-09-02T19:50:13.429Z,22.69
2022-09-02T19:52:46.254Z,22.63
2022-09-02T19:55:18.400Z,22.56
2022-09-02T19:57:48.417Z,22.48
2022-09-02T20:00:18.111Z,22.40
2022-09-02T20:02:47.547Z,22.34
2022-09-02T20:05:17.116Z,22.28
2022-09-02T20:07:47.778Z,22.24
2022-09-02T20:10:20.356Z,22.15
2022-09-02T20:12:57.318Z,22.10
2022-09-02T20:15:26.730Z,22.03
2022-09-02T20:17:56.084Z,22.03
2022-09-02T20:20:27.008Z,22.01
2022-09-02T20:22:57.853Z,21.92
2022-09-02T20:25:35.404Z,21.90
2022-09-02T20:29:02.865Z,21.81
2022-09-02T20:31:51.151Z,21.72
2022-09-02T20:34:30.208Z,21.68
2022-09-02T20:37:13.434Z,21.63
2022-09-02T20:39:54.227Z,21.55
2022-09-02T20:42:39.815Z,21.47
2022-09-02T20:45:22.700Z,21.42
2022-09-02T20:48:07.757Z,21.41
2022-09-02T20:50:50.421Z,21.40
2022-09-02T20:53:41.140Z,21.35
2022-09-02T20:56:24.388Z,21.28
2022-09-02T20:59:18.913Z,21.23
2022-09-02T21:01:50.008Z,21.20
2022-09-02T21:04:35.484Z,21.17
2022-09-02T21:07:11.126Z,21.16
2022-09-02T21:10:01.253Z,21.15
2022-09-02T21:12:48.442Z,21.09
2022-09-02T21:15:26.598Z,21.05
2022-09-02T21:18:13.830Z,20.99
2022-09-02T21:21:03.502Z,20.98
2022-09-02T21:23:32.871Z,20.93
2022-09-02T21:26:08.915Z,20.89
2022-09-02T21:28:45.762Z,20.87
2022-09-02T21:31:30.346Z,20.86
2022-09-02T21:34:05.692Z,20.82
2022-09-02T21:36:36.333Z,20.77
2022-09-02T21:39:13.218Z,20.74
2022-09-02T21:41:49.843Z,20.70
2022-09-02T21:44:44.900Z,20.69
2022-09-02T21:47:26.438Z,20.64
2022-09-02T21:50:08.275Z,20.58
2022-09-02T21:52:50.080Z,20.54
2022-09-02T21:55:45.645Z,20.54
2022-09-02T21:58:38.346Z,20.44
2022-09-02T22:01:10.105Z,20.40
2022-09-02T22:03:45.114Z,20.35
2022-09-02T22:06:47.354Z,20.32
2022-09-02T22:09:26.120Z,20.24
2022-09-02T22:12:03.753Z,20.20
2022-09-02T22:14:44.329Z,20.17
2022-09-02T22:17:16.419Z,20.17
2022-09-02T22:19:48.287Z,20.15
2022-09-02T22:22:24.613Z,20.12
2022-09-02T22:24:55.207Z,20.07
2022-09-02T22:27:35.776Z,20.02
2022-09-02T22:30:14.505Z,19.97
2022-09-02T22:32:58.018Z,19.91
2022-09-02T22:35:36.353Z,19.87
2022-09-02T22:38:27.863Z,19.84
2022-09-02T22:41:04.548Z,19.80
2022-09-02T22:43:42.811Z,19.78
2022-09-02T22:46:31.659Z,19.76
2022-09-02T22:49:17.651Z,19.72
2022-09-02T22:52:14.902Z,19.70
2022-09-02T22:54:48.665Z,19.67
2022-09-02T22:57:33.280Z,19.63
2022-09-02T23:00:12.975Z,19.57
2022-09-02T23:02:48.409Z,19.49
2022-09-02T23:05:36.040Z,19.46
2022-09-02T23:08:07.771Z,19.43
2022-09-02T23:10:47.528Z,19.38
2022-09-02T23:13:27.768Z,19.36
2022-09-02T23:16:11.897Z,19.31
2022-09-02T23:19:34.830Z,19.26
2022-09-02T23:22:17.524Z,19.23
2022-09-02T23:25:13.919Z,19.21
2022-09-02T23:28:19.285Z,19.20
2022-09-02T23:31:12.472Z,19.17
2022-09-02T23:34:03.273Z,19.22
2022-09-02T23:36:57.720Z,19.22
2022-09-02T23:39:33.227Z,19.20
2022-09-02T23:42:03.598Z,19.18
2022-09-02T23:44:33.226Z,19.19
2022-09-02T23:47:37.783Z,19.12
2022-09-02T23:50:15.447Z,19.09
2022-09-02T23:53:04.292Z,19.03
2022-09-02T23:55:45.782Z,19.01
2022-09-02T23:58:23.508Z,18.95
